createdAt,value
2023-03-17T00:00:48.634Z,65.22
2023-03-17T00:03:23.642Z,65.52
2023-03-17T00:05:54.761Z,65.17
2023-03-17T00:08:26.495Z,65.35
2023-03-17T00:10:56.602Z,65.45
2023-03-17T00:13:26.484Z,65.39
2023-03-17T00:15:58.969Z,65.53
2023-03-17T00:18:27.692Z,65.48
2023-03-17T00:20:57.711Z,65.68
2023-03-17T00:23:27.424Z,65.81
2023-03-17T00:25:57.470Z,66.18
2023-03-17T00:28:28.204Z,65.79
2023-03-17T00:31:01.024Z,65.92
2023-03-17T00:33:33.339Z,66.41
2023-03-17T00:36:03.204Z,65.95
2023-03-17T00:38:33.156Z,65.71
2023-03-17T00:41:03.246Z,65.25
2023-03-17T00:43:34.363Z,65.44
2023-03-17T00:46:05.589Z,65.67
2023-03-17T00:48:35.451Z,65.93
2023-03-17T00:51:06.078Z,65.75
2023-03-17T00:53:36.117Z,65.81
2023-03-17T00:56:07.030Z,65.61
2023-03-17T00:58:38.378Z,65.24
2023-03-17T01:01:08.733Z,65.25
2023-03-17T01:03:38.971Z,65.69
2023-03-17T01:06:10.969Z,65.80
2023-03-17T01:08:41.668Z,65.98
2023-03-17T01:11:17.951Z,66.06
2023-03-17T01:13:49.333Z,65.95
2023-03-17T01:16:18.822Z,66.39
2023-03-17T01:18:48.522Z,66.74
2023-03-17T01:21:17.787Z,66.67
2023-03-17T01:23:48.254Z,66.49
2023-03-17T01:26:18.144Z,66.39
2023-03-17T01:28:47.461Z,65.83
2023-03-17T01:31:17.322Z,66.39
2023-03-17T01:33:47.498Z,66.63
2023-03-17T01:36:17.806Z,66.86
2023-03-17T01:38:48.978Z,66.87
2023-03-17T01:41:20.733Z,66.98
2023-03-17T01:43:50.262Z,66.76
2023-03-17T01:46:29.185Z,67.32
2023-03-17T01:49:10.603Z,67.72
2023-03-17T01:51:49.293Z,67.35
2023-03-17T01:54:40.111Z,67.18
2023-03-17T01:57:23.336Z,67.84
2023-03-17T01:59:55.599Z,67.89
2023-03-17T02:02:31.034Z,67.87
2023-03-17T02:05:01.782Z,67.15
2023-03-17T02:07:31.656Z,67.33
2023-03-17T02:10:02.325Z,67.03
2023-03-17T02:12:31.786Z,66.79
2023-03-17T02:15:01.431Z,66.35
2023-03-17T02:17:30.959Z,66.34
2023-03-17T02:20:18.762Z,66.70
2023-03-17T02:22:53.899Z,67.02
2023-03-17T02:25:24.877Z,66.55
2023-03-17T02:27:57.225Z,66.20
2023-03-17T02:30:27.418Z,66.16
2023-03-17T02:32:56.874Z,66.07
2023-03-17T02:35:27.392Z,65.59
2023-03-17T02:37:56.589Z,65.71
2023-03-17T02:40:25.858Z,65.23
2023-03-17T02:42:55.151Z,65.23
2023-03-17T02:45:24.534Z,64.60
2023-03-17T02:47:53.883Z,64.72
2023-03-17T02:50:26.035Z,65.14
2023-03-17T02:52:56.104Z,65.07
2023-03-17T02:55:28.853Z,65.07
2023-03-17T02:57:58.784Z,65.63
2023-03-17T03:00:28.584Z,65.41
2023-03-17T03:02:58.042Z,66.43
2023-03-17T03:05:28.881Z,65.48
2023-03-17T03:07:58.601Z,65.98
2023-03-17T03:10:28.340Z,66.75
2023-03-17T03:12:58.256Z,65.81
2023-03-17T03:15:27.447Z,65.65
2023-03-17T03:17:56.790Z,65.31
2023-03-17T03:20:26.262Z,64.97
2023-03-17T03:22:55.845Z,64.36
2023-03-17T03:25:25.294Z,64.32
2023-03-17T03:27:54.504Z,63.81
2023-03-17T03:30:23.713Z,63.32
2023-03-17T03:32:53.299Z,63.28
2023-03-17T03:35:22.481Z,63.56
2023-03-17T03:37:52.023Z,63.34
2023-03-17T03:40:21.564Z,63.02
2023-03-17T03:42:51.247Z,63.00
2023-03-17T03:45:21.194Z,63.71
2023-03-17T03:47:50.557Z,63.01
2023-03-17T03:50:20.411Z,63.43
2023-03-17T03:52:49.885Z,62.86
2023-03-17T03:55:19.438Z,63.15
2023-03-17T03:57:48.977Z,63.29
2023-03-17T04:00:19.767Z,63.32
2023-03-17T04:02:49.012Z,63.20
2023-03-17T04:05:18.944Z,63.63
2023-03-17T04:07:49.039Z,63.44
2023-03-17T04:10:18.451Z,63.79
2023-03-17T04:12:48.002Z,63.19
2023-03-17T04:15:18.741Z,63.19
2023-03-17T04:17:48.238Z,63.66
2023-03-17T04:20:18.480Z,63.38
2023-03-17T04:22:47.778Z,63.18
2023-03-17T04:25:17.139Z,63.39
2023-03-17T04:27:46.635Z,62.92
2023-03-17T04:30:17.279Z,63.10
2023-03-17T04:32:47.526Z,63.43
2023-03-17T04:35:19.410Z,63.06
2023-03-17T04:37:48.920Z,63.49
2023-03-17T04:40:18.629Z,63.71
2023-03-17T04:42:48.000Z,63.97
2023-03-17T04:45:18.126Z,63.79
2023-03-17T04:47:47.402Z,64.29
2023-03-17T04:50:18.038Z,64.21
2023-03-17T04:52:47.308Z,64.19
2023-03-17T04:55:16.568Z,64.13
2023-03-17T04:57:46.597Z,64.00
2023-03-17T05:00:16.282Z,64.14
2023-03-17T05:02:45.957Z,64.26
2023-03-17T05:05:15.502Z,64.20
2023-03-17T05:07:45.005Z,64.19
2023-03-17T05:10:14.578Z,64.70
2023-03-17T05:12:45.332Z,64.97
2023-03-17T05:15:15.195Z,64.94
2023-03-17T05:17:44.827Z,65.09
2023-03-17T05:20:15.674Z,65.08
2023-03-17T05:22:45.230Z,64.83
2023-03-17T05:25:14.593Z,65.10
2023-03-17T05:27:44.168Z,65.06
2023-03-17T05:30:14.153Z,64.54
2023-03-17T05:32:43.529Z,64.84
2023-03-17T05:35:12.930Z,64.82
2023-03-17T05:37:42.618Z,64.42
2023-03-17T05:40:13.823Z,64.42
2023-03-17T05:42:43.023Z,65.15
2023-03-17T05:45:13.190Z,64.87
2023-03-17T05:47:42.740Z,65.19
2023-03-17T05:50:13.100Z,65.02
2023-03-17T05:52:43.359Z,65.38
2023-03-17T05:55:13.137Z,65.41
2023-03-17T05:57:42.746Z,65.35
2023-03-17T06:00:13.888Z,65.31
2023-03-17T06:02:43.887Z,65.75
2023-03-17T06:05:13.623Z,65.92
2023-03-17T06:07:52.884Z,66.00
2023-03-17T06:10:14.993Z,66.32
2023-03-17T06:12:44.209Z,66.32
2023-03-17T06:15:13.647Z,66.48
2023-03-17T06:17:42.920Z,66.54
2023-03-17T06:20:15.068Z,66.37
2023-03-17T06:23:02.180Z,66.47
2023-03-17T06:25:15.717Z,66.40
2023-03-17T06:27:45.142Z,66.47
2023-03-17T06:30:15.277Z,66.25
2023-03-17T06:32:44.560Z,66.23
2023-03-17T06:35:14.092Z,65.92
2023-03-17T06:37:43.666Z,65.72
2023-03-17T06:40:13.990Z,65.80
2023-03-17T06:42:43.546Z,65.24
2023-03-17T06:45:13.248Z,65.31
2023-03-17T06:47:42.933Z,65.16
2023-03-17T06:50:12.942Z,65.06
2023-03-17T06:52:42.360Z,64.85
2023-03-17T06:55:11.910Z,64.52
2023-03-17T06:57:41.882Z,64.70
2023-03-17T07:00:14.374Z,64.82
2023-03-17T07:02:43.174Z,64.87
2023-03-17T07:05:13.887Z,64.92
2023-03-17T07:07:43.571Z,64.67
2023-03-17T07:10:14.936Z,64.27
2023-03-17T07:12:44.839Z,64.14
2023-03-17T07:15:14.380Z,63.58
2023-03-17T07:17:43.670Z,64.16
2023-03-17T07:20:14.064Z,63.51
2023-03-17T07:22:43.738Z,62.97
2023-03-17T07:25:28.060Z,63.20
2023-03-17T07:28:02.072Z,63.03
2023-03-17T07:30:32.668Z,63.16
2023-03-17T07:33:06.019Z,63.01
2023-03-17T07:35:42.319Z,62.81
2023-03-17T07:38:13.450Z,62.95
2023-03-17T07:40:50.297Z,63.59
2023-03-17T07:43:20.062Z,63.63
2023-03-17T07:45:49.559Z,63.64
2023-03-17T07:48:20.042Z,63.63
2023-03-17T07:50:49.630Z,64.05
2023-03-17T07:53:19.293Z,64.34
2023-03-17T07:55:48.849Z,63.77
2023-03-17T07:58:18.045Z,63.97
2023-03-17T08:00:48.354Z,63.13
2023-03-17T08:03:17.684Z,63.30
2023-03-17T08:05:47.159Z,62.09
2023-03-17T08:08:16.393Z,61.10
2023-03-17T08:10:47.026Z,59.77
2023-03-17T08:13:16.454Z,58.13
2023-03-17T08:15:46.679Z,58.07
2023-03-17T08:18:15.951Z,56.67
2023-03-17T08:20:45.424Z,55.70
2023-03-17T08:23:14.720Z,55.74
2023-03-17T08:25:44.037Z,56.02
2023-03-17T08:28:14.156Z,54.56
2023-03-17T08:30:45.141Z,55.31
2023-03-17T08:33:14.553Z,53.74
2023-03-17T08:35:44.345Z,53.43
2023-03-17T08:38:13.597Z,52.21
2023-03-17T08:40:43.204Z,53.09
2023-03-17T08:43:12.686Z,53.46
2023-03-17T08:45:42.161Z,53.64
2023-03-17T08:48:11.510Z,54.28
2023-03-17T08:50:40.764Z,54.39
2023-03-17T08:53:10.053Z,54.15
2023-03-17T08:55:39.447Z,55.40
2023-03-17T08:58:09.333Z,52.87
2023-03-17T09:00:38.836Z,52.12
2023-03-17T09:03:08.821Z,52.00
2023-03-17T09:05:38.693Z,50.87
2023-03-17T09:08:08.477Z,49.66
2023-03-17T09:10:38.212Z,51.17
2023-03-17T09:13:08.958Z,49.61
2023-03-17T09:15:38.981Z,49.89
2023-03-17T09:18:09.331Z,49.27
2023-03-17T09:20:38.627Z,49.37
2023-03-17T09:23:09.503Z,47.66
2023-03-17T09:25:41.339Z,47.18
2023-03-17T09:28:12.547Z,46.61
2023-03-17T09:30:42.809Z,44.35
2023-03-17T09:33:13.221Z,44.07
2023-03-17T09:35:42.987Z,46.54
2023-03-17T09:38:13.153Z,49.06
2023-03-17T09:40:51.309Z,49.29
2023-03-17T09:43:29.438Z,46.09
2023-03-17T09:46:02.041Z,46.23
2023-03-17T09:48:52.764Z,47.04
2023-03-17T09:51:22.468Z,46.99
2023-03-17T09:54:06.763Z,46.11
2023-03-17T09:56:37.519Z,44.45
2023-03-17T09:59:09.772Z,44.87
2023-03-17T10:01:41.063Z,46.37
2023-03-17T10:04:12.037Z,44.22
2023-03-17T10:06:46.674Z,41.01
2023-03-17T10:09:35.650Z,40.88
2023-03-17T10:12:17.191Z,40.76
2023-03-17T10:15:06.684Z,43.81
2023-03-17T10:17:43.439Z,42.74
2023-03-17T10:20:22.693Z,43.64
2023-03-17T10:23:04.128Z,42.47
2023-03-17T10:25:38.156Z,42.13
2023-03-17T10:28:18.862Z,45.41
2023-03-17T10:30:48.195Z,46.29
2023-03-17T10:33:17.773Z,47.64
2023-03-17T10:35:47.876Z,48.76
2023-03-17T10:38:23.829Z,47.54
2023-03-17T10:40:58.941Z,46.74
2023-03-17T10:43:35.640Z,47.73
2023-03-17T10:46:07.707Z,47.66
2023-03-17T10:48:38.964Z,49.60
2023-03-17T10:51:13.977Z,51.99
2023-03-17T10:53:43.772Z,50.61
2023-03-17T10:56:25.925Z,51.71
2023-03-17T10:58:56.902Z,50.96
2023-03-17T11:01:31.777Z,48.50
2023-03-17T11:04:02.732Z,46.12
2023-03-17T11:06:40.009Z,46.78
2023-03-17T11:09:12.505Z,46.94
2023-03-17T11:11:47.921Z,45.94
2023-03-17T11:14:21.507Z,45.65
2023-03-17T11:16:56.857Z,45.20
2023-03-17T11:19:44.702Z,46.38
2023-03-17T11:22:26.051Z,46.29
2023-03-17T11:25:19.726Z,44.80
2023-03-17T11:27:52.221Z,45.37
2023-03-17T11:30:39.875Z,45.37
2023-03-17T11:33:29.762Z,44.52
2023-03-17T11:36:23.736Z,44.33
2023-03-17T11:39:12.620Z,43.65
2023-03-17T11:42:07.317Z,43.65
2023-03-17T11:44:46.421Z,43.03
2023-03-17T11:47:44.941Z,45.16
2023-03-17T11:50:23.065Z,43.91
2023-03-17T11:53:18.329Z,44.49
2023-03-17T11:55:53.530Z,45.98
2023-03-17T11:58:41.705Z,45.06
2023-03-17T12:01:14.288Z,44.59
2023-03-17T12:03:52.862Z,43.92
2023-03-17T12:06:30.639Z,45.53
2023-03-17T12:09:03.612Z,47.73
2023-03-17T12:11:36.147Z,48.18
2023-03-17T12:14:14.731Z,47.33
2023-03-17T12:16:47.109Z,48.13
2023-03-17T12:19:22.916Z,47.73
2023-03-17T12:21:57.598Z,48.02
2023-03-17T12:24:36.346Z,47.63
2023-03-17T12:27:21.894Z,48.79
2023-03-17T12:30:00.402Z,48.09
2023-03-17T12:32:41.936Z,47.86
2023-03-17T12:35:26.395Z,47.06
2023-03-17T12:37:56.487Z,47.48
2023-03-17T12:40:40.816Z,47.87
2023-03-17T12:43:46.782Z,47.53
2023-03-17T12:46:46.513Z,48.67
2023-03-17T12:49:21.989Z,47.56
2023-03-17T12:51:54.418Z,48.89
2023-03-17T12:54:24.557Z,47.58
2023-03-17T12:56:55.158Z,46.99
2023-03-17T12:59:26.544Z,47.27
2023-03-17T13:02:18.739Z,46.79
2023-03-17T13:04:54.743Z,48.44
2023-03-17T13:07:31.066Z,48.05
2023-03-17T13:10:03.470Z,49.79
2023-03-17T13:12:44.846Z,49.12
2023-03-17T13:15:39.688Z,46.83
2023-03-17T13:18:21.428Z,48.37
2023-03-17T13:21:02.957Z,47.58
2023-03-17T13:23:58.216Z,48.05
2023-03-17T13:26:55.022Z,50.22
2023-03-17T13:29:36.503Z,48.62
2023-03-17T13:32:18.217Z,47.64
2023-03-17T13:34:56.016Z,46.85
2023-03-17T13:37:51.333Z,46.28
2023-03-17T13:40:26.862Z,46.59
2023-03-17T13:43:03.293Z,45.50
2023-03-17T13:45:42.114Z,44.44
2023-03-17T13:48:34.716Z,44.73
2023-03-17T13:51:15.117Z,44.71
2023-03-17T13:53:46.495Z,43.20
2023-03-17T13:56:28.031Z,43.74
2023-03-17T13:59:06.837Z,46.07
2023-03-17T14:01:53.598Z,46.45
2023-03-17T14:04:28.875Z,45.61
2023-03-17T14:07:00.808Z,44.54
2023-03-17T14:09:39.024Z,44.00
2023-03-17T14:12:38.442Z,42.37
2023-03-17T14:15:11.331Z,43.19
2023-03-17T14:18:01.666Z,45.57
2023-03-17T14:20:31.353Z,46.36
2023-03-17T14:23:02.724Z,45.93
2023-03-17T14:25:34.331Z,47.52
2023-03-17T14:28:06.218Z,47.68
2023-03-17T14:30:37.225Z,48.37
2023-03-17T14:33:16.007Z,47.15
2023-03-17T14:35:45.603Z,48.18
2023-03-17T14:38:24.277Z,47.83
2023-03-17T14:41:05.943Z,47.82
2023-03-17T14:43:36.892Z,47.65
2023-03-17T14:46:08.165Z,45.78
2023-03-17T14:48:39.566Z,47.67
2023-03-17T14:51:17.776Z,46.24
2023-03-17T14:53:47.644Z,48.04
2023-03-17T14:56:20.186Z,48.04
2023-03-17T14:58:51.557Z,48.51
2023-03-17T15:01:39.849Z,49.73
2023-03-17T15:04:14.343Z,49.95
2023-03-17T15:06:52.323Z,49.95
2023-03-17T15:09:36.511Z,48.81
2023-03-17T15:12:17.903Z,50.18
2023-03-17T15:14:48.049Z,49.90
2023-03-17T15:17:22.516Z,50.19
2023-03-17T15:19:53.590Z,50.32
2023-03-17T15:22:28.978Z,50.77
2023-03-17T15:25:04.324Z,50.68
2023-03-17T15:27:33.855Z,50.86
2023-03-17T15:30:03.335Z,50.80
2023-03-17T15:32:32.653Z,51.72
2023-03-17T15:35:02.446Z,52.99
2023-03-17T15:37:34.049Z,51.83
2023-03-17T15:40:05.504Z,51.39
2023-03-17T15:42:37.047Z,50.70
2023-03-17T15:45:07.232Z,51.31
2023-03-17T15:47:39.970Z,51.33
2023-03-17T15:50:25.304Z,50.88
2023-03-17T15:52:56.149Z,51.55
2023-03-17T15:55:31.418Z,51.57
2023-03-17T15:58:01.225Z,52.14
2023-03-17T16:00:31.732Z,51.18
2023-03-17T16:03:04.045Z,51.80
2023-03-17T16:05:35.378Z,52.37
2023-03-17T16:08:04.638Z,52.37
2023-03-17T16:10:34.821Z,53.08
2023-03-17T16:13:04.046Z,52.25
2023-03-17T16:15:36.887Z,53.72
2023-03-17T16:18:08.566Z,53.28
2023-03-17T16:20:43.114Z,53.54
2023-03-17T16:23:23.912Z,53.90
2023-03-17T16:25:55.482Z,54.60
2023-03-17T16:28:29.503Z,54.21
2023-03-17T16:31:00.242Z,54.89
2023-03-17T16:33:32.892Z,54.98
2023-03-17T16:36:01.994Z,55.53
2023-03-17T16:38:33.179Z,55.83
2023-03-17T16:41:08.082Z,56.17
2023-03-17T16:43:38.712Z,56.79
2023-03-17T16:46:08.720Z,56.13
2023-03-17T16:48:38.340Z,57.25
2023-03-17T16:51:08.938Z,56.71
2023-03-17T16:53:38.380Z,57.41
2023-03-17T16:56:14.734Z,57.81
2023-03-17T16:58:44.500Z,58.20
2023-03-17T17:01:19.695Z,57.62
2023-03-17T17:03:49.390Z,58.11
2023-03-17T17:06:21.227Z,57.96
2023-03-17T17:08:52.241Z,57.71
2023-03-17T17:11:22.136Z,58.08
2023-03-17T17:13:51.802Z,58.37
2023-03-17T17:16:32.336Z,58.29
2023-03-17T17:19:02.769Z,58.65
2023-03-17T17:21:33.103Z,59.49
2023-03-17T17:24:02.399Z,60.90
2023-03-17T17:26:31.825Z,61.21
2023-03-17T17:29:01.070Z,62.08
2023-03-17T17:31:30.833Z,62.32
2023-03-17T17:34:00.331Z,63.07
2023-03-17T17:36:30.232Z,64.50
2023-03-17T17:38:59.632Z,64.72
2023-03-17T17:41:31.364Z,64.92
2023-03-17T17:43:59.876Z,64.86
2023-03-17T17:46:29.241Z,65.01
2023-03-17T17:48:58.725Z,64.72
2023-03-17T17:51:28.928Z,64.90
2023-03-17T17:53:58.272Z,64.81
2023-03-17T17:56:27.492Z,64.16
2023-03-17T17:58:57.357Z,63.17
2023-03-17T18:01:26.596Z,62.54
2023-03-17T18:03:55.835Z,62.77
2023-03-17T18:06:25.307Z,62.23
2023-03-17T18:08:55.269Z,62.44
2023-03-17T18:11:24.466Z,62.40
2023-03-17T18:13:53.716Z,62.80
2023-03-17T18:16:23.658Z,63.30
2023-03-17T18:18:53.291Z,63.97
2023-03-17T18:21:22.489Z,63.94
2023-03-17T18:23:53.910Z,63.64
2023-03-17T18:26:23.499Z,64.39
2023-03-17T18:28:53.098Z,63.60
2023-03-17T18:31:28.611Z,63.64
2023-03-17T18:34:00.065Z,63.99
2023-03-17T18:36:29.910Z,64.36
2023-03-17T18:38:59.553Z,64.53
2023-03-17T18:41:29.117Z,64.89
2023-03-17T18:43:58.937Z,64.98
2023-03-17T18:46:28.227Z,65.65
2023-03-17T18:48:57.963Z,65.85
2023-03-17T18:51:27.168Z,65.80
2023-03-17T18:53:56.608Z,66.02
2023-03-17T18:56:27.781Z,65.97
2023-03-17T18:58:58.488Z,65.83
2023-03-17T19:01:28.451Z,65.08
2023-03-17T19:03:57.973Z,64.96
2023-03-17T19:06:27.232Z,65.48
2023-03-17T19:08:57.393Z,65.53
2023-03-17T19:11:26.867Z,65.03
2023-03-17T19:13:56.403Z,65.43
2023-03-17T19:16:27.389Z,64.52
2023-03-17T19:18:58.333Z,64.76
2023-03-17T19:21:28.516Z,64.59
2023-03-17T19:24:00.792Z,64.79
2023-03-17T19:26:31.298Z,64.92
2023-03-17T19:29:00.635Z,64.82
2023-03-17T19:31:30.367Z,64.55
2023-03-17T19:34:01.201Z,65.16
2023-03-17T19:36:34.038Z,64.22
2023-03-17T19:39:03.997Z,64.19
2023-03-17T19:41:33.887Z,63.92
2023-03-17T19:44:05.651Z,65.36
2023-03-17T19:46:36.970Z,64.43
2023-03-17T19:49:06.454Z,64.34
2023-03-17T19:51:36.145Z,65.65
2023-03-17T19:54:06.154Z,66.55
2023-03-17T19:56:35.563Z,66.34
2023-03-17T19:59:06.988Z,67.00
2023-03-17T20:01:38.342Z,66.68
2023-03-17T20:04:09.445Z,66.94
2023-03-17T20:06:39.009Z,66.11
2023-03-17T20:09:09.049Z,65.88
2023-03-17T20:11:38.972Z,66.14
2023-03-17T20:14:08.377Z,66.65
2023-03-17T20:16:40.334Z,66.11
2023-03-17T20:19:09.348Z,65.72
2023-03-17T20:21:39.326Z,65.85
2023-03-17T20:24:09.222Z,65.89
2023-03-17T20:26:39.476Z,65.79
2023-03-17T20:29:09.736Z,65.63
2023-03-17T20:31:40.933Z,65.87
2023-03-17T20:34:10.779Z,66.77
2023-03-17T20:36:41.822Z,66.90
2023-03-17T20:39:13.227Z,66.05
2023-03-17T20:41:43.126Z,68.12
2023-03-17T20:44:12.516Z,66.98
2023-03-17T20:46:42.782Z,66.86
2023-03-17T20:49:12.789Z,67.70
2023-03-17T20:51:42.533Z,68.43
2023-03-17T20:54:12.638Z,68.50
2023-03-17T20:56:42.255Z,69.29
2023-03-17T20:59:13.420Z,69.88
2023-03-17T21:01:43.253Z,70.41
2023-03-17T21:04:14.497Z,70.89
2023-03-17T21:06:44.905Z,71.30
2023-03-17T21:09:14.623Z,71.63
2023-03-17T21:11:44.357Z,71.96
2023-03-17T21:14:14.758Z,72.38
2023-03-17T21:16:45.377Z,72.72
2023-03-17T21:19:17.045Z,72.99
2023-03-17T21:21:46.564Z,73.44
2023-03-17T21:24:31.879Z,73.68
2023-03-17T21:27:07.217Z,74.11
2023-03-17T21:29:37.262Z,74.43
2023-03-17T21:32:08.543Z,74.60
2023-03-17T21:34:38.381Z,74.70
2023-03-17T21:37:08.000Z,74.97
2023-03-17T21:39:37.394Z,75.00
2023-03-17T21:42:09.163Z,75.22
2023-03-17T21:44:38.935Z,75.47
2023-03-17T21:47:09.101Z,75.49
2023-03-17T21:49:38.462Z,76.00
2023-03-17T21:52:08.196Z,76.15
2023-03-17T21:54:38.018Z,76.50
2023-03-17T21:57:07.739Z,77.08
2023-03-17T21:59:37.335Z,77.47
2023-03-17T22:02:07.576Z,78.15
2023-03-17T22:04:50.866Z,78.44
2023-03-17T22:07:43.905Z,78.76
2023-03-17T22:10:26.361Z,79.34
2023-03-17T22:12:59.015Z,79.75
2023-03-17T22:15:31.553Z,79.57
2023-03-17T22:18:07.203Z,79.54
2023-03-17T22:20:41.743Z,79.90
2023-03-17T22:23:15.741Z,80.15
2023-03-17T22:25:56.978Z,80.35
2023-03-17T22:28:31.288Z,80.74
2023-03-17T22:31:07.002Z,80.77
2023-03-17T22:33:43.405Z,81.40
2023-03-17T22:36:14.070Z,82.27
2023-03-17T22:38:45.225Z,82.49
2023-03-17T22:41:17.125Z,83.48
2023-03-17T22:43:46.972Z,83.35
2023-03-17T22:46:17.764Z,83.56
2023-03-17T22:48:47.725Z,84.44
2023-03-17T22:51:19.812Z,85.00
2023-03-17T22:53:49.467Z,84.32
2023-03-17T22:56:19.569Z,84.69
2023-03-17T22:58:49.074Z,84.87
2023-03-17T23:01:19.700Z,85.00
2023-03-17T23:03:49.115Z,84.72
2023-03-17T23:06:18.658Z,85.38
2023-03-17T23:08:47.932Z,85.03
2023-03-17T23:11:21.171Z,84.95
2023-03-17T23:13:52.492Z,85.29
2023-03-17T23:16:22.282Z,85.49
2023-03-17T23:18:52.704Z,86.05
2023-03-17T23:21:25.200Z,85.58
2023-03-17T23:23:55.394Z,85.97
2023-03-17T23:26:24.737Z,86.73
2023-03-17T23:28:54.027Z,86.26
2023-03-17T23:31:23.430Z,86.47
2023-03-17T23:33:52.963Z,86.55
2023-03-17T23:36:22.408Z,86.77
2023-03-17T23:38:52.444Z,87.10
2023-03-17T23:41:22.783Z,87.05
2023-03-17T23:43:51.998Z,87.21
2023-03-17T23:46:21.629Z,87.27
2023-03-17T23:48:51.320Z,87.43
2023-03-17T23:51:20.766Z,87.28
2023-03-17T23:53:52.001Z,87.15
2023-03-17T23:56:21.264Z,87.34
2023-03-17T23:58:50.525Z,87.17
